Time;durP1;ratioP1;P1;durP2;ratioP2;P2;SDS_P1;SDS_P2;PMS_P1;PMS_P2;Temp;Humidity;BMP_temperature;BMP_pressure;BME280_temperature;BME280_humidity;BME280_pressure;Samples;Min_cycle;Max_cycle;Signal;HPM_P1;HPM_P2
2021/09/22 00:01:42;;;;;;;0.20;0.20;;;;;;;7.94;74.87;100264.34;1649338;85;21074;-57
2021/09/22 00:04:09;;;;;;;0.30;0.20;;;;;;;7.94;74.80;100257.70;1661337;85;21111;-57
2021/09/22 00:06:36;;;;;;;1.25;0.40;;;;;;;7.96;74.08;100250.40;1628971;87;21130;-57
2021/09/22 00:09:02;;;;;;;0.23;0.20;;;;;;;7.96;74.08;100250.40;1627836;87;21082;-57
2021/09/22 00:11:30;;;;;;;0.47;0.40;;;;;;;7.98;74.39;100256.36;1655117;84;21666;-58
2021/09/22 00:13:56;;;;;;;0.37;0.35;;;;;;;7.98;74.65;100247.58;1628611;87;21154;-59
2021/09/22 00:16:24;;;;;;;0.40;0.20;;;;;;;8.01;74.64;100252.55;1628675;88;21102;-58
2021/09/22 00:18:51;;;;;;;2.13;0.20;;;;;;;8.04;74.63;100246.05;1627994;87;21155;-60
2021/09/22 00:21:20;;;;;;;0.20;0.20;;;;;;;8.00;74.78;100249.55;1631846;85;21102;-60
2021/09/22 00:23:47;;;;;;;0.30;0.17;;;;;;;7.94;74.86;100257.70;1610540;87;21560;-55
2021/09/22 00:26:16;;;;;;;0.40;0.40;;;;;;;7.90;75.18;100244.47;1595923;88;21678;-58
2021/09/22 00:28:42;;;;;;;0.17;0.10;;;;;;;7.89;74.81;100244.63;1602945;88;21038;-58
2021/09/22 00:31:10;;;;;;;1.33;0.40;;;;;;;7.89;74.91;100246.80;1629954;87;21591;-57
2021/09/22 00:33:37;;;;;;;0.88;0.40;;;;;;;7.88;74.93;100244.32;1623567;86;21587;-57
2021/09/22 00:36:03;;;;;;;2.50;0.20;;;;;;;7.87;75.31;100254.59;1632244;86;21625;-58
2021/09/22 00:38:30;;;;;;;1.17;0.47;;;;;;;7.87;75.35;100251.44;1597710;88;21054;-58
2021/09/22 00:40:56;;;;;;;1.00;0.10;;;;;;;7.89;75.38;100249.47;1627633;87;21090;-56
2021/09/22 00:43:22;;;;;;;0.35;0.20;;;;;;;7.95;75.36;100237.33;1610024;87;21081;-58
2021/09/22 00:45:50;;;;;;;0.60;0.60;;;;;;;7.96;75.14;100234.98;1602447;88;21152;-59
2021/09/22 00:48:16;;;;;;;0.60;0.20;;;;;;;7.91;75.18;100245.28;1626919;86;21036;-61
2021/09/22 00:50:47;;;;;;;0.90;0.40;;;;;;;7.86;75.40;100229.89;1601216;87;21608;-59
2021/09/22 00:53:16;;;;;;;0.20;0.20;;;;;;;7.85;75.35;100230.87;1602954;88;21154;-58
2021/09/22 00:55:44;;;;;;;0.20;0.20;;;;;;;7.89;75.57;100232.21;1637740;85;21097;-57
2021/09/22 00:58:12;;;;;;;0.10;0.10;;;;;;;7.94;75.48;100225.04;1650345;85;21023;-57
2021/09/22 01:00:38;;;;;;;0.80;0.20;;;;;;;7.92;75.36;100225.21;1649808;85;21024;-58
2021/09/22 01:03:06;;;;;;;0.20;0.10;;;;;;;7.90;75.58;100221.09;1633926;87;21075;-57
2021/09/22 01:05:32;;;;;;;0.20;0.13;;;;;;;7.85;76.11;100227.41;1626892;87;22131;-58
2021/09/22 01:08:03;;;;;;;0.30;0.20;;;;;;;7.80;76.33;100226.61;1635596;87;21113;-56
2021/09/22 01:10:31;;;;;;;1.00;0.40;;;;;;;7.78;76.58;100216.17;1627594;87;22183;-57
2021/09/22 01:12:59;;;;;;;0.57;0.13;;;;;;;7.79;76.39;100222.29;1633883;86;21006;-58
2021/09/22 01:15:31;;;;;;;1.07;0.20;;;;;;;7.79;76.45;100223.62;1625419;87;21663;-57
2021/09/22 01:18:00;;;;;;;1.57;0.40;;;;;;;7.81;76.54;100212.33;1635058;86;21114;-59
2021/09/22 01:20:32;;;;;;;0.20;0.10;;;;;;;7.78;76.54;100210.04;1628949;87;21261;-59
2021/09/22 01:23:05;;;;;;;0.67;0.37;;;;;;;7.75;76.56;100217.01;1637331;85;21050;-57
2021/09/22 01:25:39;;;;;;;0.20;0.13;;;;;;;7.73;76.69;100219.01;1627162;88;21570;-58
2021/09/22 01:28:09;;;;;;;0.20;0.20;;;;;;;7.72;76.68;100221.33;1621693;86;21093;-59
2021/09/22 01:30:38;;;;;;;0.33;0.20;;;;;;;7.77;76.42;100224.30;1637446;87;21061;-59
2021/09/22 01:33:09;;;;;;;1.13;0.10;;;;;;;7.81;76.46;100216.31;1641667;86;21253;-58
2021/09/22 01:35:45;;;;;;;2.23;0.20;;;;;;;7.84;76.33;100213.32;1626459;88;21078;-59
2021/09/22 01:38:19;;;;;;;0.40;0.10;;;;;;;7.88;76.02;100221.25;1595558;90;21128;-59
2021/09/22 01:41:06;;;;;;;4.17;0.30;;;;;;;7.88;75.90;100214.63;1611537;88;21067;-58
2021/09/22 01:43:40;;;;;;;0.57;0.30;;;;;;;7.83;75.66;100216.96;1612086;88;21573;-57
2021/09/22 01:46:11;;;;;;;;;;;;;;;7.80;75.80;100212.02;1633702;86;21077;-55
2021/09/22 01:48:39;;;;;;;0.20;0.13;;;;;;;7.76;75.70;100206.70;1629988;86;20141;-60
2021/09/22 01:51:09;;;;;;;2.00;0.20;;;;;;;7.74;75.23;100210.03;1633044;86;21578;-57
2021/09/22 01:53:39;;;;;;;1.33;0.20;;;;;;;7.77;75.19;100207.05;1630899;86;21162;-58
2021/09/22 01:56:09;;;;;;;0.50;0.30;;;;;;;7.82;74.92;100204.71;1641655;83;21116;-56
2021/09/22 01:58:37;;;;;;;0.10;0.10;;;;;;;7.86;74.65;100207.34;1635426;86;21095;-57
2021/09/22 02:01:12;;;;;;;0.50;0.40;;;;;;;7.83;74.60;100210.83;1637859;86;21017;-59
2021/09/22 02:03:43;;;;;;;0.20;0.10;;;;;;;7.79;74.27;100206.37;1631507;86;21119;-56
2021/09/22 02:06:15;;;;;;;1.80;0.20;;;;;;;7.75;74.15;100209.87;1640720;86;21155;-57
2021/09/22 02:08:43;;;;;;;0.50;0.20;;;;;;;7.73;73.94;100195.12;1637496;86;21612;-58
2021/09/22 02:11:17;;;;;;;0.20;0.20;;;;;;;7.78;73.88;100210.04;1636134;84;21107;-58
2021/09/22 02:13:46;;;;;;;1.53;0.33;;;;;;;7.84;73.77;100209.34;1639539;86;21155;-57
2021/09/22 02:16:14;;;;;;;0.50;0.20;;;;;;;7.86;73.55;100202.03;1631569;86;21471;-58
2021/09/22 02:18:52;;;;;;;0.50;0.10;;;;;;;7.83;73.69;100209.51;1629379;86;21107;-58
2021/09/22 02:21:20;;;;;;;0.20;0.20;;;;;;;7.80;73.81;100212.84;1642713;86;21067;-58
2021/09/22 02:23:46;;;;;;;0.20;0.20;;;;;;;7.76;74.27;100208.03;1643832;86;21107;-57
2021/09/22 02:26:13;;;;;;;0.30;0.30;;;;;;;7.80;74.12;100209.37;1641735;86;21032;-61
2021/09/22 02:28:41;;;;;;;0.17;0.10;;;;;;;7.82;73.71;100212.67;1641649;86;21019;-59
2021/09/22 02:31:09;;;;;;;0.20;0.10;;;;;;;7.84;73.78;100209.34;1637876;86;21067;-60
2021/09/22 02:33:39;;;;;;;1.80;0.30;;;;;;;7.80;73.87;100207.53;1609523;86;21184;-58
2021/09/22 02:36:06;;;;;;;;;;;;;;;7.77;73.84;100198.58;1644663;86;21091;-59
2021/09/22 02:38:41;;;;;;;0.20;0.10;;;;;;;7.72;73.88;100204.08;1638381;86;20194;-57
2021/09/22 02:41:07;;;;;;;1.25;0.15;;;;;;;7.68;74.28;100193.48;1642747;86;21102;-58
2021/09/22 02:43:33;;;;;;;0.28;0.20;;;;;;;7.74;74.10;100198.09;1641850;86;21124;-57
2021/09/22 02:46:00;;;;;;;1.37;0.20;;;;;;;7.79;73.75;100202.39;1654193;86;21051;-59
2021/09/22 02:48:29;;;;;;;0.20;0.20;;;;;;;7.72;73.60;100190.81;1639621;86;21100;-59
2021/09/22 02:50:55;;;;;;;;;;;;;;;7.73;73.74;100198.60;1645305;86;21119;-56
2021/09/22 02:53:22;;;;;;;0.10;0.10;;;;;;;7.69;74.16;100209.75;1642836;86;20151;-59
2021/09/22 02:55:48;;;;;;;0.20;0.10;;;;;;;7.62;74.43;100202.14;1647999;84;21178;-59
2021/09/22 02:58:16;;;;;;;0.40;0.10;;;;;;;7.65;74.25;100203.11;1642515;85;21057;-58
2021/09/22 03:00:44;;;;;;;0.63;0.10;;;;;;;7.66;73.90;100209.57;1654330;85;21501;-56
2021/09/22 03:03:12;;;;;;;0.20;0.20;;;;;;;7.68;73.96;100206.75;1636218;86;21122;-57
2021/09/22 03:05:41;;;;;;;0.30;0.20;;;;;;;7.65;73.96;100207.09;1654791;85;21028;-59
2021/09/22 03:08:08;;;;;;;0.10;0.10;;;;;;;7.58;74.36;100211.77;1654496;85;21051;-58
2021/09/22 03:10:34;;;;;;;0.35;0.10;;;;;;;7.56;74.58;100204.48;1658020;85;21028;-57
2021/09/22 03:13:01;;;;;;;0.10;0.10;;;;;;;7.58;74.75;100207.78;1656647;85;21058;-60
2021/09/22 03:15:29;;;;;;;0.10;0.10;;;;;;;7.65;74.91;100210.59;1660246;85;21453;-60
2021/09/22 03:17:56;;;;;;;0.93;0.30;;;;;;;7.68;74.75;100208.08;1657379;85;21647;-59
2021/09/22 03:20:22;;;;;;;0.40;0.20;;;;;;;7.68;74.83;100208.90;1656742;85;21630;-59
2021/09/22 03:22:48;;;;;;;1.95;0.15;;;;;;;7.62;75.12;100194.19;1648663;83;21139;-59
2021/09/22 03:25:19;;;;;;;1.70;0.40;;;;;;;7.56;75.11;100203.16;1626230;86;21482;-55
2021/09/22 03:27:48;;;;;;;0.10;0.10;;;;;;;7.53;75.23;100202.16;1624925;86;21156;-57
2021/09/22 03:30:18;;;;;;;0.20;0.20;;;;;;;7.53;74.87;100201.34;1625174;86;21697;-58
2021/09/22 03:32:49;;;;;;;0.20;0.20;;;;;;;7.54;74.76;100202.50;1623435;86;21045;-58
2021/09/22 03:35:16;;;;;;;0.17;0.10;;;;;;;7.53;75.02;100198.69;1626955;86;20991;-58
2021/09/22 03:37:42;;;;;;;;;;;;;;;7.55;75.04;100204.17;1606781;86;20996;-58
2021/09/22 03:40:10;;;;;;;0.20;0.20;;;;;;;7.55;74.93;100204.64;1627904;86;20778;-57
2021/09/22 03:42:38;;;;;;;0.53;0.37;;;;;;;7.42;75.33;100202.53;1623341;86;21007;-59
2021/09/22 03:45:06;;;;;;;0.50;0.30;;;;;;;7.38;75.43;100197.25;1603246;86;21103;-58
2021/09/22 03:47:32;;;;;;;4.03;0.10;;;;;;;7.39;75.69;100204.22;1605452;86;21076;-57
2021/09/22 03:49:59;;;;;;;0.80;0.30;;;;;;;7.44;75.80;100193.94;1629332;86;21740;-58
2021/09/22 03:52:29;;;;;;;0.20;0.20;;;;;;;7.49;75.27;100196.87;1628615;86;21087;-59
2021/09/22 03:54:56;;;;;;;1.47;0.40;;;;;;;7.52;75.04;100202.36;1624475;86;21789;-59
2021/09/22 03:57:22;;;;;;;1.32;0.50;;;;;;;7.51;75.28;100197.53;1637536;85;21042;-59
2021/09/22 03:59:50;;;;;;;1.70;0.70;;;;;;;7.48;75.26;100196.56;1638711;86;21049;-60
2021/09/22 04:02:16;;;;;;;;;;;;;;;7.47;75.41;100202.85;1664985;84;21082;-61
2021/09/22 04:04:44;;;;;;;0.70;0.10;;;;;;;7.48;75.68;100196.56;1657498;85;20146;-59
2021/09/22 04:07:10;;;;;;;0.20;0.20;;;;;;;7.50;75.57;100197.72;1642082;85;21623;-60
2021/09/22 04:09:36;;;;;;;0.20;0.20;;;;;;;7.53;75.28;100198.18;1659621;85;21079;-60
2021/09/22 04:12:04;;;;;;;2.93;0.30;;;;;;;7.53;75.06;100204.81;1632647;85;21137;-58
2021/09/22 04:14:33;;;;;;;0.30;0.20;;;;;;;7.50;75.25;100199.05;1600945;88;21045;-60
2021/09/22 04:17:01;;;;;;;1.30;0.20;;;;;;;7.46;75.57;100199.89;1617963;87;21129;-59
2021/09/22 04:19:28;;;;;;;0.77;0.77;;;;;;;7.49;75.49;100203.50;1570133;89;21090;-58
2021/09/22 04:21:55;;;;;;;0.40;0.40;;;;;;;7.52;75.20;100205.83;1615325;87;21078;-61
2021/09/22 04:24:24;;;;;;;0.90;0.40;;;;;;;7.54;75.16;100204.34;1589927;88;21058;-61
2021/09/22 04:26:53;;;;;;;0.40;0.33;;;;;;;7.56;75.19;100205.80;1661849;85;21088;-58
2021/09/22 04:29:23;;;;;;;1.43;0.43;;;;;;;7.55;75.24;100206.82;1661183;85;21108;-61
2021/09/22 04:32:11;;;;;;;1.05;0.33;;;;;;;7.50;75.27;100201.20;1640372;86;21124;-59
2021/09/22 04:34:49;;;;;;;1.13;0.40;;;;;;;7.49;75.72;100199.53;1601366;88;21088;-60
2021/09/22 04:37:36;;;;;;;0.63;0.30;;;;;;;7.55;75.65;100207.30;1658168;85;21033;-60
2021/09/22 04:40:23;;;;;;;0.40;0.40;;;;;;;7.57;75.76;100205.30;1657634;85;21601;-58
2021/09/22 04:43:08;;;;;;;0.70;0.40;;;;;;;7.51;75.67;100190.08;1662283;85;21073;-60
2021/09/22 04:45:53;;;;;;;0.60;0.33;;;;;;;7.65;75.60;100211.06;1665712;83;21558;-60
2021/09/22 04:48:39;;;;;;;0.30;0.30;;;;;;;7.64;75.18;100206.27;1587403;87;21105;-59
2021/09/22 04:51:24;;;;;;;0.40;0.30;;;;;;;7.58;75.08;100213.59;1653095;85;21124;-59
2021/09/22 04:54:09;;;;;;;0.90;0.20;;;;;;;7.49;75.32;100198.71;1660616;85;21012;-58
2021/09/22 04:56:53;;;;;;;0.50;0.30;;;;;;;7.56;75.55;100204.48;1658475;85;21217;-59
2021/09/22 04:59:40;;;;;;;0.77;0.40;;;;;;;7.62;75.13;100206.94;1655039;85;21624;-60
2021/09/22 05:02:14;;;;;;;0.33;0.33;;;;;;;7.66;74.69;100211.41;1649482;85;21128;-61
2021/09/22 05:04:58;;;;;;;0.33;0.30;;;;;;;7.63;74.32;100213.06;1660367;85;21033;-59
2021/09/22 05:07:44;;;;;;;2.73;0.40;;;;;;;7.55;74.70;100209.47;1665411;85;21132;-61
2021/09/22 05:10:29;;;;;;;0.70;0.67;;;;;;;7.49;74.83;100208.81;1650625;85;21755;-59
2021/09/22 05:13:13;;;;;;;1.47;0.30;;;;;;;7.50;74.97;100214.97;1661089;84;21061;-60
2021/09/22 05:15:58;;;;;;;0.77;0.40;;;;;;;7.53;74.86;100220.72;1664350;85;21644;-60
2021/09/22 05:18:43;;;;;;;0.70;0.30;;;;;;;7.56;75.13;100216.41;1659389;85;21546;-60
2021/09/22 05:21:27;;;;;;;0.57;0.20;;;;;;;7.61;74.97;100221.22;1661378;85;21049;-61
2021/09/22 05:24:14;;;;;;;0.53;0.53;;;;;;;7.63;74.43;100218.38;1651314;85;21125;-59
2021/09/22 05:26:59;;;;;;;0.60;0.40;;;;;;;7.59;74.31;100212.58;1661540;85;21089;-61
2021/09/22 05:29:46;;;;;;;0.40;0.20;;;;;;;7.55;74.27;100218.75;1656584;85;22561;-57
2021/09/22 05:32:31;;;;;;;0.90;0.87;;;;;;;7.55;74.27;100209.47;1655477;85;21095;-59
2021/09/22 05:35:17;;;;;;;1.53;0.50;;;;;;;7.57;74.08;100206.15;1665784;84;21040;-59
2021/09/22 05:38:03;;;;;;;0.50;0.20;;;;;;;7.57;74.31;100210.13;1664680;85;21092;-59
2021/09/22 05:40:49;;;;;;;0.60;0.43;;;;;;;7.57;74.79;100215.91;1663314;85;21077;-60
2021/09/22 05:43:35;;;;;;;1.13;0.50;;;;;;;7.50;74.77;100221.59;1665357;85;21095;-62
2021/09/22 05:46:19;;;;;;;0.57;0.43;;;;;;;7.44;75.44;100216.47;1655515;85;21125;-61
2021/09/22 05:49:05;;;;;;;0.40;0.27;;;;;;;7.47;76.01;100212.14;1657376;85;21458;-60
2021/09/22 05:51:51;;;;;;;0.53;0.45;;;;;;;7.55;76.23;100215.25;1650148;85;21693;-59
2021/09/22 05:54:36;;;;;;;0.30;0.30;;;;;;;7.62;75.94;100219.39;1658203;85;21133;-61
2021/09/22 05:57:23;;;;;;;4.65;0.53;;;;;;;7.72;74.70;100218.67;1618083;86;21093;-61
2021/09/22 06:00:10;;;;;;;0.57;0.57;;;;;;;7.72;74.70;100218.67;1665124;85;21011;-61
2021/09/22 06:02:40;;;;;;;0.53;0.53;;;;;;;7.45;74.62;100184.14;1655902;85;21367;-59
2021/09/22 06:05:11;;;;;;;1.23;0.60;;;;;;;7.67;74.37;100215.22;1661796;85;21792;-58
2021/09/22 06:07:57;;;;;;;0.70;0.60;;;;;;;7.68;74.31;100221.34;1656277;85;21571;-59
2021/09/22 06:10:44;;;;;;;0.70;0.60;;;;;;;7.67;74.17;100218.38;1663120;85;21663;-62
2021/09/22 06:13:15;;;;;;;2.63;0.53;;;;;;;7.69;74.09;100215.05;1658390;85;21236;-60
2021/09/22 06:15:41;;;;;;;1.20;0.65;;;;;;;7.73;74.35;100220.34;1658845;85;22070;-60
2021/09/22 06:18:07;;;;;;;1.25;0.70;;;;;;;7.75;74.13;100211.70;1647911;85;21102;-61
2021/09/22 06:20:36;;;;;;;0.80;0.80;;;;;;;7.74;74.16;100214.02;1661555;85;21136;-58
2021/09/22 06:23:02;;;;;;;;;;;;;;;7.72;73.89;100212.89;1663031;85;21087;-61
2021/09/22 06:25:28;;;;;;;0.73;0.70;;;;;;;7.71;74.05;100208.56;1657867;85;20104;-59
2021/09/22 06:27:55;;;;;;;0.60;0.60;;;;;;;7.70;74.51;100210.06;1659594;85;21041;-59
2021/09/22 06:30:22;;;;;;;0.40;0.40;;;;;;;7.76;73.82;100208.03;1657204;85;21115;-67
2021/09/22 06:32:50;;;;;;;1.30;0.70;;;;;;;7.85;73.53;100210.16;1634551;85;21417;-57
2021/09/22 06:35:17;;;;;;;0.53;0.37;;;;;;;7.90;73.37;100204.66;1655505;85;21570;-57
2021/09/22 06:37:48;;;;;;;1.33;0.70;;;;;;;7.94;73.06;100213.09;1657468;85;21108;-59
2021/09/22 06:40:17;;;;;;;0.90;0.90;;;;;;;7.92;72.46;100211.94;1659900;85;21063;-61
2021/09/22 06:42:47;;;;;;;0.60;0.60;;;;;;;7.91;72.73;100216.94;1656915;85;21183;-62
2021/09/22 06:45:20;;;;;;;0.40;0.40;;;;;;;7.86;72.86;100206.01;1661250;84;21491;-61
2021/09/22 06:47:46;;;;;;;3.90;0.57;;;;;;;7.96;72.29;100213.23;1655593;85;21081;-61
2021/09/22 06:50:13;;;;;;;0.83;0.40;;;;;;;7.94;72.49;100216.57;1662206;85;21144;-59
2021/09/22 06:52:40;;;;;;;0.93;0.80;;;;;;;7.98;72.29;100209.09;1665883;86;21636;-62
2021/09/22 06:55:10;;;;;;;0.50;0.40;;;;;;;7.97;72.56;100221.55;1648854;84;21081;-64
2021/09/22 06:57:37;;;;;;;0.90;0.43;;;;;;;7.97;72.51;100212.77;1662164;85;21093;-70
2021/09/22 07:00:09;;;;;;;0.87;0.70;;;;;;;7.97;72.52;100212.25;1643416;85;21137;-60
2021/09/22 07:02:34;;;;;;;3.80;0.40;;;;;;;8.01;72.66;100221.20;1665896;85;20972;-70
2021/09/22 07:05:00;;;;;;;1.35;0.93;;;;;;;8.07;72.31;100224.48;1665915;85;21645;-62
2021/09/22 07:07:26;;;;;;;0.95;0.70;;;;;;;8.10;71.65;100222.78;1621583;87;21170;-69
2021/09/22 07:09:53;;;;;;;0.73;0.50;;;;;;;8.08;71.76;100214.17;1669797;84;21078;-59
2021/09/22 07:12:21;;;;;;;0.40;0.40;;;;;;;8.06;71.56;100216.18;1662895;84;21254;-63
2021/09/22 07:14:47;;;;;;;2.02;0.23;;;;;;;8.04;70.87;100223.49;1651241;85;21071;-68
2021/09/22 07:17:17;;;;;;;1.53;0.47;;;;;;;7.97;71.10;100232.16;1649899;85;21077;-58
2021/09/22 07:19:44;;;;;;;1.17;0.20;;;;;;;8.01;71.57;100226.00;1607464;87;21336;-61
2021/09/22 07:22:12;;;;;;;0.50;0.30;;;;;;;8.09;71.16;100235.75;1660722;84;21057;-63
2021/09/22 07:24:38;;;;;;;1.60;0.30;;;;;;;8.15;70.80;100236.37;1660250;85;21055;-63
2021/09/22 07:27:04;;;;;;;1.50;0.30;;;;;;;8.19;70.52;100237.67;1660458;85;20990;-66
2021/09/22 07:29:30;;;;;;;0.53;0.25;;;;;;;8.17;70.17;100238.34;1659996;85;21132;-67
2021/09/22 07:31:58;;;;;;;1.07;0.60;;;;;;;8.18;70.19;100236.03;1658762;85;21143;-62
2021/09/22 07:34:26;;;;;;;2.08;0.30;;;;;;;8.21;70.13;100230.35;1664332;84;21076;-60
2021/09/22 07:36:53;;;;;;;2.83;0.30;;;;;;;8.24;70.57;100227.36;1659698;85;21029;-62
2021/09/22 07:39:20;;;;;;;3.40;0.30;;;;;;;8.32;69.66;100231.28;1661977;85;21175;-61
2021/09/22 07:41:47;;;;;;;;;;;;;;;8.32;69.33;100226.48;1669048;85;21065;-60
2021/09/22 07:44:14;;;;;;;2.55;2.30;;;;;;;8.29;69.77;100226.34;1666162;85;20157;-70
2021/09/22 07:46:40;;;;;;;1.30;0.85;;;;;;;8.24;70.28;100232.67;1655434;85;21114;-66
2021/09/22 07:49:07;;;;;;;;;;;;;;;8.27;70.52;100224.36;1662556;85;21127;-63
2021/09/22 07:51:34;;;;;;;1.50;0.97;;;;;;;8.32;70.51;100222.49;1661446;85;20133;-59
2021/09/22 07:54:00;;;;;;;1.10;0.57;;;;;;;8.33;70.69;100220.99;1656202;85;21037;-64
2021/09/22 07:56:28;;;;;;;0.73;0.73;;;;;;;8.42;70.74;100219.15;1656206;85;21634;-62
2021/09/22 07:58:54;;;;;;;1.02;0.53;;;;;;;8.47;70.47;100221.26;1654409;85;21551;-69
2021/09/22 08:01:20;;;;;;;1.55;1.15;;;;;;;8.38;70.69;100219.97;1613054;87;22137;-60
2021/09/22 08:03:47;;;;;;;1.17;1.07;;;;;;;8.33;71.14;100218.84;1607634;87;21168;-67
2021/09/22 08:06:14;;;;;;;2.47;1.50;;;;;;;8.32;71.64;100228.62;1620199;86;21102;-63
2021/09/22 08:08:42;;;;;;;1.70;1.20;;;;;;;8.32;71.55;100216.67;1664940;85;21038;-62
2021/09/22 08:11:08;;;;;;;0.93;0.93;;;;;;;8.34;71.35;100226.64;1662708;85;21127;-62
2021/09/22 08:13:34;;;;;;;2.70;1.07;;;;;;;8.32;71.41;100221.98;1656220;85;21092;-62
2021/09/22 08:16:01;;;;;;;2.03;0.90;;;;;;;8.30;71.46;100229.30;1654966;85;21041;-61
2021/09/22 08:18:29;;;;;;;1.17;0.90;;;;;;;8.31;71.84;100227.50;1664693;85;21068;-63
2021/09/22 08:20:57;;;;;;;1.20;1.10;;;;;;;8.26;71.62;100230.66;1615390;87;21173;-64
2021/09/22 08:23:23;;;;;;;2.03;0.90;;;;;;;8.22;71.73;100228.03;1651486;85;21035;-64
2021/09/22 08:25:50;;;;;;;4.12;0.70;;;;;;;8.20;71.65;100226.06;1618224;87;21654;-62
2021/09/22 08:28:16;;;;;;;;;;;;;;;8.22;71.68;100224.05;1668259;85;21692;-62
2021/09/22 08:30:42;;;;;;;2.27;0.90;;;;;;;8.26;71.79;100231.17;1660831;85;20231;-63
2021/09/22 08:33:08;;;;;;;0.95;0.65;;;;;;;8.25;71.84;100226.37;1659140;85;21050;-63
2021/09/22 08:35:35;;;;;;;2.30;0.70;;;;;;;8.25;71.94;100228.17;1656638;85;21065;-63
2021/09/22 08:38:03;;;;;;;1.97;0.43;;;;;;;8.23;71.77;100225.72;1661639;85;21076;-60
2021/09/22 08:40:30;;;;;;;0.30;0.30;;;;;;;8.20;71.04;100223.41;1660496;85;21021;-64
2021/09/22 08:42:58;;;;;;;1.10;0.60;;;;;;;8.18;71.08;100224.91;1665307;85;21084;-64
2021/09/22 08:45:25;;;;;;;1.13;0.30;;;;;;;8.24;71.48;100216.73;1653172;85;21046;-64
2021/09/22 08:48:54;;;;;;;0.77;0.30;;;;;;;8.56;69.61;100217.54;1783628;78;23019;-65
2021/09/22 08:51:21;;;;;;;0.40;0.30;;;;;;;8.56;69.61;100217.54;1742404;80;22083;-67
2021/09/22 08:53:48;;;;;;;0.30;0.30;;;;;;;8.67;69.12;100217.63;1723842;80;21670;-65
2021/09/22 08:56:14;;;;;;;1.02;0.50;;;;;;;8.77;69.21;100211.04;1714221;82;21622;-64
2021/09/22 08:58:42;;;;;;;0.40;0.37;;;;;;;8.88;68.12;100212.45;1692190;83;21655;-66
2021/09/22 09:01:15;;;;;;;0.50;0.40;;;;;;;9.02;67.90;100215.31;1686717;83;21625;-66
2021/09/22 09:03:43;;;;;;;0.50;0.23;;;;;;;9.16;67.47;100210.52;1690953;83;21116;-63
2021/09/22 09:06:26;;;;;;;1.93;0.30;;;;;;;9.21;66.72;100205.98;1693620;83;21044;-63
2021/09/22 09:08:56;;;;;;;1.13;0.33;;;;;;;9.24;66.60;100209.61;1695503;83;21079;-65
2021/09/22 09:11:29;;;;;;;2.10;1.40;;;;;;;9.20;66.46;100217.64;1696744;83;21172;-63
2021/09/22 09:13:58;;;;;;;0.60;0.40;;;;;;;9.12;66.49;100211.91;1720747;82;21152;-63
2021/09/22 09:16:36;;;;;;;1.50;0.90;;;;;;;9.00;66.69;100208.84;1709431;82;21100;-63
2021/09/22 09:19:19;;;;;;;2.63;0.93;;;;;;;8.91;67.38;100204.60;1713631;83;21530;-64
2021/09/22 09:22:09;;;;;;;0.30;0.30;;;;;;;8.91;67.44;100209.92;1714602;82;21027;-65
2021/09/22 09:24:41;;;;;;;0.40;0.20;;;;;;;8.56;67.59;100163.08;1713140;82;21108;-62
2021/09/22 09:27:14;;;;;;;1.97;0.30;;;;;;;8.82;67.79;100220.33;1703671;82;21135;-62
2021/09/22 09:29:42;;;;;;;0.20;0.20;;;;;;;8.74;68.08;100213.26;1714934;82;21120;-62
2021/09/22 09:32:13;;;;;;;0.90;0.40;;;;;;;8.75;68.13;100217.04;1722582;82;21064;-64
2021/09/22 09:35:08;;;;;;;0.23;0.23;;;;;;;8.83;67.79;100217.47;1714501;81;21038;-62
2021/09/22 09:37:45;;;;;;;0.87;0.20;;;;;;;9.00;67.09;100213.34;1721500;82;21045;-62
2021/09/22 09:40:36;;;;;;;1.13;0.60;;;;;;;9.12;67.09;100210.57;1717444;82;21041;-62
2021/09/22 09:43:07;;;;;;;0.70;0.60;;;;;;;9.18;66.54;100213.83;1711118;82;21143;-63
2021/09/22 09:45:44;;;;;;;1.50;0.80;;;;;;;9.20;66.30;100214.98;1691654;83;21044;-63
2021/09/22 09:48:22;;;;;;;2.63;0.70;;;;;;;9.13;66.25;100211.70;1681308;84;21065;-63
2021/09/22 09:50:57;;;;;;;1.53;0.50;;;;;;;9.06;66.81;100214.78;1684964;84;21041;-61
2021/09/22 09:53:29;;;;;;;1.47;0.60;;;;;;;9.01;66.95;100208.36;1681753;84;21152;-63
2021/09/22 09:56:00;;;;;;;3.23;1.00;;;;;;;9.00;66.92;100215.48;1676874;84;21043;-63
2021/09/22 09:58:30;;;;;;;3.70;1.27;;;;;;;8.94;67.11;100212.23;1683870;85;21079;-63
2021/09/22 10:00:57;;;;;;;3.47;1.17;;;;;;;8.88;67.61;100212.95;1661510;84;21080;-62
2021/09/22 10:03:25;;;;;;;1.83;0.77;;;;;;;8.85;67.93;100215.97;1610683;87;22406;-62
2021/09/22 10:05:53;;;;;;;3.17;1.02;;;;;;;8.83;67.78;100214.81;1646430;86;21120;-63
2021/09/22 10:08:22;;;;;;;1.20;1.10;;;;;;;8.77;67.92;100215.03;1646754;86;21139;-63
2021/09/22 10:10:51;;;;;;;1.33;0.60;;;;;;;8.79;68.05;100214.03;1641036;85;21720;-64
2021/09/22 10:13:22;;;;;;;5.60;0.77;;;;;;;8.86;67.84;100207.81;1658620;84;21088;-64
2021/09/22 10:15:50;;;;;;;1.47;0.87;;;;;;;8.89;68.07;100210.13;1670232;84;21029;-62
2021/09/22 10:18:20;;;;;;;1.03;1.03;;;;;;;8.92;68.45;100212.91;1632834;86;21384;-63
2021/09/22 10:20:49;;;;;;;1.40;0.87;;;;;;;8.96;68.15;100215.53;1656577;85;21080;-64
2021/09/22 10:23:20;;;;;;;1.30;1.20;;;;;;;9.00;68.14;100213.34;1685110;83;21189;-62
2021/09/22 10:25:48;;;;;;;2.67;1.03;;;;;;;9.05;67.94;100213.63;1666833;84;21148;-64
2021/09/22 10:28:17;;;;;;;2.00;1.20;;;;;;;9.07;67.79;100216.42;1660243;85;21041;-62
2021/09/22 10:30:47;;;;;;;2.03;1.33;;;;;;;9.18;67.90;100221.80;1662221;85;21168;-64
2021/09/22 10:33:27;;;;;;;3.30;1.30;;;;;;;9.26;67.26;100215.57;1658714;85;20986;-64
2021/09/22 10:36:01;;;;;;;1.83;1.60;;;;;;;9.22;67.39;100218.28;1634788;86;21034;-64
2021/09/22 10:38:34;;;;;;;0.90;0.90;;;;;;;9.12;67.62;100207.41;1625499;87;21039;-63
2021/09/22 10:41:02;;;;;;;3.03;1.00;;;;;;;9.18;67.89;100217.00;1620025;87;21061;-61
2021/09/22 10:43:39;;;;;;;1.23;0.83;;;;;;;9.19;68.10;100214.64;1614237;88;21696;-62
2021/09/22 10:46:18;;;;;;;1.57;0.95;;;;;;;9.23;68.17;100209.27;1623239;86;21670;-60
2021/09/22 10:48:58;;;;;;;0.90;0.90;;;;;;;9.28;67.04;100209.05;1619256;86;21094;-62
2021/09/22 10:51:39;;;;;;;1.00;0.60;;;;;;;9.35;66.97;100209.97;1604111;88;21125;-64
2021/09/22 10:54:22;;;;;;;2.73;1.00;;;;;;;9.43;66.82;100209.05;1622203;87;21157;-63
2021/09/22 10:57:00;;;;;;;1.57;0.80;;;;;;;9.47;66.69;100206.34;1627623;86;21133;-63
2021/09/22 10:59:35;;;;;;;2.02;1.85;;;;;;;9.47;66.45;100205.01;1661644;85;21074;-61
2021/09/22 11:02:05;;;;;;;5.20;2.57;;;;;;;9.43;66.31;100199.74;1663359;84;21125;-62
2021/09/22 11:04:57;;;;;;;2.77;2.30;;;;;;;9.16;66.63;100173.30;1662485;85;21105;-60
2021/09/22 11:07:25;;;;;;;5.20;3.47;;;;;;;9.29;66.83;100211.23;1651586;84;21089;-63
2021/09/22 11:09:52;;;;;;;3.50;3.17;;;;;;;9.24;66.91;100206.44;1633746;86;21170;-62
2021/09/22 11:12:20;;;;;;;8.27;3.90;;;;;;;9.23;67.33;100211.94;1646720;84;21023;-64
2021/09/22 11:14:51;;;;;;;3.30;3.08;;;;;;;9.16;67.67;100215.33;1660130;85;21599;-63
2021/09/22 11:17:25;;;;;;;3.97;3.60;;;;;;;9.13;67.75;100217.52;1660085;85;21021;-63
2021/09/22 11:19:57;;;;;;;3.33;3.13;;;;;;;9.11;68.00;100219.55;1665657;85;21587;-62
2021/09/22 11:22:29;;;;;;;3.27;3.00;;;;;;;9.04;67.78;100218.12;1660351;84;21115;-62
2021/09/22 11:25:02;;;;;;;2.93;2.30;;;;;;;9.06;68.23;100209.95;1634502;86;21189;-60
2021/09/22 11:27:31;;;;;;;2.63;2.43;;;;;;;9.08;67.54;100207.93;1637534;86;21082;-61
2021/09/22 11:30:02;;;;;;;4.03;2.23;;;;;;;9.07;67.19;100205.78;1590402;88;21694;-62
2021/09/22 11:32:43;;;;;;;4.63;2.27;;;;;;;9.02;67.19;100206.82;1630090;86;21534;-62
2021/09/22 11:35:13;;;;;;;2.50;2.30;;;;;;;9.00;67.30;100206.69;1627315;86;21607;-61
2021/09/22 11:37:45;;;;;;;2.03;1.93;;;;;;;8.98;67.86;100202.87;1631262;87;21626;-61
2021/09/22 11:40:35;;;;;;;2.30;1.43;;;;;;;8.97;67.83;100194.59;1638964;87;21587;-62
2021/09/22 11:43:11;;;;;;;5.50;4.03;;;;;;;8.99;67.17;100199.23;1633967;87;21691;-63
2021/09/22 11:45:58;;;;;;;1.83;1.73;;;;;;;9.08;67.48;100204.79;1678641;84;21668;-64
2021/09/22 11:48:34;;;;;;;2.03;1.93;;;;;;;9.15;67.40;100192.91;1693643;84;21110;-63
2021/09/22 11:51:05;;;;;;;2.67;2.47;;;;;;;9.18;67.11;100193.88;1645466;87;21229;-63
2021/09/22 11:53:37;;;;;;;3.27;3.03;;;;;;;9.20;66.98;100193.70;1644350;87;21047;-64
2021/09/22 11:56:05;;;;;;;3.20;2.97;;;;;;;9.18;66.84;100197.05;1640840;85;21131;-65
2021/09/22 11:58:35;;;;;;;2.77;2.40;;;;;;;9.18;66.37;100191.73;1658546;86;21501;-65